Time;durP1;ratioP1;P1;durP2;ratioP2;P2;SDS_P1;SDS_P2;PMS_P1;PMS_P2;Temp;Humidity;BMP_temperature;BMP_pressure;BME280_temperature;BME280_humidity;BME280_pressure;Samples;Min_cycle;Max_cycle;Signal;HPM_P1;HPM_P2
2023/12/03 05:30:04;;;;;;;0.20;0.20;;;4.20;84.60;;;;;;6137764;23;20017;31
2023/12/03 05:32:30;;;;;;;0.10;0.10;;;4.20;84.80;;;;;;4959927;28;20042;-80
2023/12/03 05:34:56;;;;;;;0.10;0.10;;;4.20;85.00;;;;;;4975502;28;20037;-79
2023/12/03 05:37:22;;;;;;;0.10;0.10;;;4.20;85.00;;;;;;4978902;28;20406;-79
2023/12/03 05:39:49;;;;;;;0.10;0.10;;;4.20;85.00;;;;;;4974022;28;20105;-79
2023/12/03 05:42:14;;;;;;;0.10;0.10;;;4.20;85.30;;;;;;4974860;28;20031;-79
2023/12/03 05:44:40;;;;;;;0.20;0.20;;;4.20;85.50;;;;;;4974886;28;20176;-78
2023/12/03 05:47:05;;;;;;;0.15;0.15;;;4.20;85.50;;;;;;4974715;28;20026;-79
2023/12/03 05:49:31;;;;;;;0.10;0.10;;;4.20;85.60;;;;;;4974199;28;20089;-79
2023/12/03 05:51:57;;;;;;;0.10;0.10;;;4.20;85.60;;;;;;4974666;28;20097;-79
2023/12/03 05:54:22;;;;;;;0.10;0.10;;;4.20;85.80;;;;;;4974656;28;20026;-78
2023/12/03 05:56:48;;;;;;;0.10;0.10;;;4.20;85.80;;;;;;4973201;28;20107;-79
2023/12/03 05:59:13;;;;;;;0.10;0.10;;;4.20;85.90;;;;;;4973511;28;20411;-79
2023/12/03 06:01:39;;;;;;;0.20;0.20;;;4.20;85.90;;;;;;4972606;28;20031;-79
2023/12/03 06:04:07;;;;;;;0.10;0.10;;;4.30;85.90;;;;;;4973486;28;20031;-79
2023/12/03 06:06:36;;;;;;;0.10;0.10;;;4.30;86.00;;;;;;4974471;28;20031;-78
2023/12/03 06:09:05;;;;;;;0.15;0.15;;;4.30;85.90;;;;;;4990103;28;20038;-79
2023/12/03 06:11:35;;;;;;;0.10;0.10;;;4.30;86.20;;;;;;4994298;28;20398;-79
2023/12/03 06:14:01;;;;;;;0.10;0.10;;;4.30;86.40;;;;;;4990814;28;20026;-78
2023/12/03 06:16:27;;;;;;;0.20;0.20;;;4.30;86.20;;;;;;5009207;28;20030;-78
2023/12/03 06:18:53;;;;;;;0.10;0.10;;;4.30;86.30;;;;;;4988355;28;20522;-79
2023/12/03 06:21:18;;;;;;;0.10;0.10;;;4.40;86.20;;;;;;4955191;29;20027;-79
2023/12/03 06:23:44;;;;;;;0.10;0.10;;;4.40;86.20;;;;;;4968830;28;20438;-79
2023/12/03 06:26:09;;;;;;;0.13;0.13;;;4.40;86.20;;;;;;4974458;28;20030;-78
2023/12/03 06:28:35;;;;;;;0.20;0.20;;;4.50;86.30;;;;;;4974482;28;20034;-78
2023/12/03 06:31:01;;;;;;;0.13;0.13;;;4.40;86.30;;;;;;4976165;28;20042;-78
2023/12/03 06:33:26;;;;;;;0.13;0.13;;;4.50;86.30;;;;;;4977942;28;20038;-78
2023/12/03 06:35:53;;;;;;;0.10;0.10;;;4.50;86.10;;;;;;4976546;28;20023;-78
2023/12/03 06:38:19;;;;;;;0.10;0.10;;;4.50;86.20;;;;;;4977836;28;20061;-78
2023/12/03 06:40:45;;;;;;;0.20;0.20;;;4.50;86.20;;;;;;5008080;28;20486;-78
2023/12/03 06:43:10;;;;;;;0.10;0.10;;;4.60;86.30;;;;;;4977491;28;20097;-79
2023/12/03 06:45:37;;;;;;;0.10;0.10;;;4.60;86.20;;;;;;5009628;28;20082;-78
2023/12/03 06:48:03;;;;;;;0.10;0.10;;;4.60;86.20;;;;;;4976722;28;20114;-78
2023/12/03 06:50:29;;;;;;;0.15;0.15;;;4.60;86.30;;;;;;4992462;28;20837;-79
2023/12/03 06:52:54;;;;;;;0.10;0.10;;;4.60;86.40;;;;;;4976636;28;20669;-78
2023/12/03 06:55:20;;;;;;;0.20;0.20;;;4.60;86.50;;;;;;4977764;28;20034;-79
2023/12/03 06:57:45;;;;;;;0.10;0.10;;;4.60;86.50;;;;;;4976416;28;20033;-78
2023/12/03 07:00:11;;;;;;;0.10;0.10;;;4.70;86.50;;;;;;4977768;28;20081;-78
2023/12/03 07:02:37;;;;;;;0.10;0.10;;;4.70;86.40;;;;;;4976126;28;20038;-78
2023/12/03 07:05:04;;;;;;;0.10;0.10;;;4.70;86.50;;;;;;4969441;28;20571;-79
2023/12/03 07:07:30;;;;;;;0.10;0.10;;;4.60;86.50;;;;;;4975240;28;20045;-79
2023/12/03 07:09:55;;;;;;;0.20;0.20;;;4.60;86.50;;;;;;4986135;28;20484;-79
2023/12/03 07:12:21;;;;;;;0.20;0.20;;;4.60;86.70;;;;;;4996997;28;20030;-79
2023/12/03 07:14:47;;;;;;;0.10;0.10;;;4.60;86.60;;;;;;4991754;28;20056;-79
2023/12/03 07:17:12;;;;;;;0.10;0.10;;;4.70;86.50;;;;;;4977307;28;20039;-79
2023/12/03 07:19:43;;;;;;;0.10;0.10;;;4.60;86.50;;;;;;4975020;28;20538;-79
2023/12/03 07:22:08;;;;;;;0.17;0.17;;;4.60;86.60;;;;;;4977440;28;20545;-78
2023/12/03 07:24:34;;;;;;;0.10;0.10;;;4.70;86.50;;;;;;4977130;28;20410;-78
2023/12/03 07:26:59;;;;;;;0.10;0.10;;;4.70;86.50;;;;;;4977033;28;20038;-77
2023/12/03 07:29:25;;;;;;;0.20;0.20;;;4.70;86.50;;;;;;4976122;28;20027;-78
2023/12/03 07:31:50;;;;;;;0.10;0.10;;;4.70;86.40;;;;;;4977050;28;20078;-83
2023/12/03 07:34:16;;;;;;;0.20;0.20;;;4.80;86.30;;;;;;4975041;28;20170;-78
2023/12/03 07:36:42;;;;;;;0.20;0.20;;;4.90;86.20;;;;;;4975591;28;20398;-81
2023/12/03 07:39:08;;;;;;;0.10;0.10;;;4.90;86.00;;;;;;4976781;28;20393;-78
2023/12/03 07:41:34;;;;;;;0.10;0.10;;;4.90;86.00;;;;;;4975618;28;20034;-77
2023/12/03 07:43:59;;;;;;;0.10;0.10;;;4.80;86.10;;;;;;4991826;28;20023;-75
2023/12/03 07:46:25;;;;;;;0.10;0.10;;;4.90;86.10;;;;;;4984332;28;20041;-76
2023/12/03 07:48:50;;;;;;;0.20;0.20;;;4.90;86.10;;;;;;4983391;28;20039;-77
2023/12/03 07:51:16;;;;;;;0.10;0.10;;;4.80;86.10;;;;;;4976257;28;20042;-77
2023/12/03 07:53:41;;;;;;;0.10;0.10;;;4.90;86.10;;;;;;4976577;28;20026;-78
2023/12/03 07:56:08;;;;;;;0.20;0.20;;;4.80;86.10;;;;;;4976447;28;20398;-80
2023/12/03 07:58:36;;;;;;;0.10;0.10;;;4.80;86.30;;;;;;4975591;28;20117;-82
2023/12/03 08:01:03;;;;;;;0.10;0.10;;;4.80;86.40;;;;;;4972765;28;20034;-82
2023/12/03 08:03:29;;;;;;;0.10;0.10;;;4.90;86.00;;;;;;4976478;28;20023;-88
2023/12/03 08:05:55;;;;;;;0.10;0.10;;;4.90;86.20;;;;;;4973920;28;20500;-84
2023/12/03 08:08:20;;;;;;;0.20;0.20;;;4.90;86.10;;;;;;4978137;28;20501;-83
2023/12/03 08:10:46;;;;;;;0.10;0.10;;;5.00;86.10;;;;;;4978194;28;20074;-81
2023/12/03 08:13:11;;;;;;;0.10;0.10;;;4.90;86.10;;;;;;4976203;28;20023;-82
2023/12/03 08:15:37;;;;;;;0.20;0.20;;;4.90;86.10;;;;;;4990602;28;20446;-87
2023/12/03 08:18:03;;;;;;;0.17;0.17;;;5.00;86.30;;;;;;4992224;28;20450;-79
2023/12/03 08:20:29;;;;;;;0.13;0.13;;;5.00;86.20;;;;;;4966923;28;20031;-79
2023/12/03 08:22:55;;;;;;;0.10;0.10;;;5.10;86.10;;;;;;4981673;28;20038;-84
2023/12/03 08:25:21;;;;;;;0.20;0.20;;;5.10;86.20;;;;;;4991888;28;20023;-80
2023/12/03 08:27:47;;;;;;;0.20;0.20;;;5.10;86.10;;;;;;4986929;28;20062;-88
2023/12/03 08:30:13;;;;;;;0.10;0.10;;;5.10;86.00;;;;;;4999239;28;20494;-88
2023/12/03 08:32:38;;;;;;;0.20;0.20;;;5.00;86.20;;;;;;4986676;28;20026;-84
2023/12/03 08:35:04;;;;;;;0.10;0.10;;;5.10;86.40;;;;;;4985883;28;20030;-83
2023/12/03 08:37:30;;;;;;;0.20;0.20;;;5.20;86.30;;;;;;4987678;28;20038;-84
2023/12/03 08:39:57;;;;;;;0.10;0.10;;;5.20;86.40;;;;;;4996584;28;20038;-85
2023/12/03 08:42:23;;;;;;;0.10;0.10;;;5.30;86.30;;;;;;4975179;28;20102;-86
2023/12/03 08:44:48;;;;;;;0.13;0.13;;;5.30;86.20;;;;;;4976573;28;20058;-85
2023/12/03 08:47:14;;;;;;;0.10;0.10;;;5.30;86.30;;;;;;4975137;28;20494;-85
2023/12/03 08:49:40;;;;;;;0.13;0.13;;;5.30;86.30;;;;;;4999939;28;20046;-85
2023/12/03 08:52:07;;;;;;;0.10;0.10;;;5.40;86.30;;;;;;4992077;28;20367;-86
2023/12/03 08:54:34;;;;;;;0.20;0.20;;;5.50;86.20;;;;;;4964689;28;20046;-84
2023/12/03 08:56:59;;;;;;;0.20;0.20;;;5.40;86.30;;;;;;4982602;28;20022;-83
2023/12/03 08:59:25;;;;;;;0.10;0.10;;;5.40;86.40;;;;;;4977000;28;20114;-88
2023/12/03 09:01:51;;;;;;;0.10;0.10;;;5.50;86.30;;;;;;4969913;28;20103;-87
2023/12/03 09:04:17;;;;;;;0.10;0.10;;;5.60;86.30;;;;;;4972688;28;20037;-87
2023/12/03 09:06:44;;;;;;;0.17;0.17;;;5.60;86.40;;;;;;4976198;28;20030;-84
2023/12/03 09:09:10;;;;;;;0.10;0.10;;;5.70;86.10;;;;;;4993274;28;20040;-82
2023/12/03 09:11:36;;;;;;;0.20;0.20;;;5.70;86.10;;;;;;4976746;28;20489;-85
2023/12/03 09:14:02;;;;;;;0.20;0.20;;;5.70;86.10;;;;;;4974244;28;20043;-86
2023/12/03 09:16:28;;;;;;;0.10;0.10;;;5.70;86.20;;;;;;4990391;28;20085;-86
2023/12/03 09:18:54;;;;;;;0.10;0.10;;;5.70;86.20;;;;;;4976369;28;20490;-84
2023/12/03 09:21:19;;;;;;;0.20;0.20;;;5.80;86.10;;;;;;4973351;28;20025;-79
2023/12/03 09:23:45;;;;;;;0.10;0.10;;;5.80;86.10;;;;;;4959859;28;20058;-85
2023/12/03 09:26:11;;;;;;;0.10;0.10;;;5.90;86.10;;;;;;4975657;28;20026;-87
2023/12/03 09:28:36;;;;;;;0.10;0.10;;;6.00;86.00;;;;;;5005690;28;20026;-85
2023/12/03 09:31:02;;;;;;;0.17;0.17;;;6.10;85.80;;;;;;4982294;28;20147;-88
2023/12/03 09:33:28;;;;;;;0.10;0.10;;;6.10;85.70;;;;;;4990197;28;20122;-86
2023/12/03 09:35:56;;;;;;;0.10;0.10;;;6.10;85.70;;;;;;4970399;28;20033;-90
2023/12/03 09:38:22;;;;;;;0.10;0.10;;;6.20;85.70;;;;;;4965420;28;20038;-89
2023/12/03 09:40:49;;;;;;;0.10;0.10;;;6.20;85.80;;;;;;4981111;28;20022;-89
2023/12/03 09:43:20;;;;;;;0.10;0.10;;;6.20;85.70;;;;;;4979380;28;20034;-90
2023/12/03 09:45:49;;;;;;;0.15;0.15;;;6.30;85.70;;;;;;4973773;28;20050;-90
2023/12/03 09:48:19;;;;;;;0.10;0.10;;;6.30;85.50;;;;;;4991456;28;20035;-89
2023/12/03 09:50:45;;;;;;;0.10;0.10;;;6.30;85.50;;;;;;4978986;28;20034;-90
2023/12/03 09:53:11;;;;;;;0.10;0.10;;;6.30;85.40;;;;;;4977407;28;20037;-86
2023/12/03 09:55:41;;;;;;;0.10;0.10;;;6.40;85.30;;;;;;4986165;28;20031;-89
2023/12/03 09:58:10;;;;;;;0.10;0.10;;;6.50;85.20;;;;;;4974114;28;20031;-90
2023/12/03 10:00:37;;;;;;;0.10;0.10;;;6.50;84.80;;;;;;4990476;28;20029;-90
2023/12/03 10:03:04;;;;;;;0.10;0.10;;;6.60;85.00;;;;;;4991635;28;20022;-91
2023/12/03 10:05:30;;;;;;;0.17;0.10;;;6.60;84.90;;;;;;4998050;28;20437;-91
2023/12/03 10:07:57;;;;;;;0.10;0.10;;;6.70;85.00;;;;;;4995078;28;20089;-90
2023/12/03 10:10:28;;;;;;;0.10;0.10;;;6.70;84.80;;;;;;4980270;28;20023;-90
2023/12/03 10:12:55;;;;;;;0.10;0.10;;;6.80;84.90;;;;;;4995807;28;20038;-89
2023/12/03 10:15:21;;;;;;;0.10;0.10;;;6.80;84.80;;;;;;4996425;28;20034;-90
2023/12/03 10:17:49;;;;;;;0.10;0.10;;;6.70;84.70;;;;;;4984569;28;20033;-87
2023/12/03 10:20:28;;;;;;;0.10;0.10;;;6.80;84.60;;;;;;4989888;28;20051;-86
2023/12/03 10:22:59;;;;;;;0.10;0.10;;;7.00;84.60;;;;;;5004698;28;20056;-90
2023/12/03 10:25:44;;;;;;;0.10;0.10;;;7.00;84.30;;;;;;5006150;28;20075;-90
2023/12/03 10:28:10;;;;;;;0.10;0.10;;;7.00;84.20;;;;;;4985956;28;20031;-90
2023/12/03 10:30:39;;;;;;;0.10;0.10;;;7.00;84.00;;;;;;5002113;28;20059;-89
2023/12/03 10:33:05;;;;;;;0.10;0.10;;;7.10;84.10;;;;;;4988004;28;20154;-90
2023/12/03 10:35:35;;;;;;;0.10;0.10;;;7.10;83.90;;;;;;5001181;28;20042;-87
2023/12/03 10:38:01;;;;;;;0.10;0.10;;;7.10;84.30;;;;;;4993603;28;20031;-86
2023/12/03 10:40:26;;;;;;;0.10;0.10;;;7.20;84.20;;;;;;4989531;28;20125;-92
2023/12/03 10:42:52;;;;;;;0.10;0.10;;;7.30;84.00;;;;;;4997503;28;20066;-90
2023/12/03 10:45:18;;;;;;;0.10;0.10;;;7.40;83.70;;;;;;4981472;28;20081;-91
2023/12/03 10:47:44;;;;;;;0.10;0.10;;;7.40;83.90;;;;;;5008191;28;20734;-82
2023/12/03 10:50:14;;;;;;;0.10;0.10;;;7.50;83.80;;;;;;4999105;28;20038;-85
2023/12/03 10:52:40;;;;;;;0.10;0.10;;;7.40;83.90;;;;;;4993817;28;20031;-85
2023/12/03 10:55:07;;;;;;;0.10;0.10;;;7.50;83.80;;;;;;4978307;28;20142;-89
2023/12/03 10:57:41;;;;;;;0.10;0.10;;;7.50;84.00;;;;;;4977553;28;20054;-89
2023/12/03 11:00:11;;;;;;;0.10;0.10;;;7.40;84.20;;;;;;4974578;28;20109;-88
2023/12/03 11:02:49;;;;;;;0.10;0.10;;;7.50;84.20;;;;;;4978352;28;20026;-87
2023/12/03 11:05:27;;;;;;;0.10;0.10;;;7.50;84.20;;;;;;4976173;28;20050;-84
2023/12/03 11:07:53;;;;;;;0.10;0.10;;;7.60;84.10;;;;;;4993910;28;20031;-89
2023/12/03 11:10:19;;;;;;;0.10;0.10;;;7.60;84.00;;;;;;4979075;28;20450;-84
2023/12/03 11:12:46;;;;;;;0.10;0.10;;;7.70;83.80;;;;;;4976929;28;20038;-81
2023/12/03 11:15:13;;;;;;;0.10;0.10;;;7.70;83.80;;;;;;4974089;28;20062;-83
2023/12/03 11:17:44;;;;;;;0.10;0.10;;;7.70;83.70;;;;;;4972428;28;20566;-79
2023/12/03 11:20:15;;;;;;;0.10;0.10;;;7.70;83.80;;;;;;4976511;28;20023;-79
2023/12/03 11:22:59;;;;;;;0.10;0.10;;;7.60;83.80;;;;;;4969456;28;20032;-83
2023/12/03 11:25:31;;;;;;;0.10;0.10;;;7.60;83.90;;;;;;4971473;28;20122;-80
2023/12/03 11:27:57;;;;;;;0.10;0.10;;;7.60;84.10;;;;;;4977429;28;20106;-80
2023/12/03 11:30:37;;;;;;;0.10;0.10;;;7.60;84.10;;;;;;4972693;28;20027;-82
2023/12/03 11:33:07;;;;;;;0.10;0.10;;;7.70;83.90;;;;;;4973195;28;20038;-82
2023/12/03 11:35:33;;;;;;;0.10;0.10;;;7.80;83.70;;;;;;4973006;28;20027;-84
2023/12/03 11:38:00;;;;;;;0.20;0.20;;;7.90;83.60;;;;;;4974574;28;20042;-87
2023/12/03 11:40:33;;;;;;;0.10;0.10;;;8.00;83.00;;;;;;4976211;28;20386;-88
2023/12/03 11:42:59;;;;;;;0.10;0.10;;;8.20;83.30;;;;;;4998349;28;20046;-83
2023/12/03 11:45:26;;;;;;;0.10;0.10;;;8.20;83.10;;;;;;5000847;28;20027;-83
2023/12/03 11:48:10;;;;;;;0.10;0.10;;;8.30;82.80;;;;;;4991066;28;20027;-87
2023/12/03 11:50:37;;;;;;;0.10;0.10;;;8.30;82.50;;;;;;5001947;28;20023;-80
2023/12/03 11:53:05;;;;;;;0.10;0.10;;;8.30;82.50;;;;;;4967965;28;20034;-85
2023/12/03 11:55:35;;;;;;;0.10;0.10;;;8.20;82.80;;;;;;4976896;28;20574;-78
2023/12/03 11:58:03;;;;;;;0.10;0.10;;;8.30;82.90;;;;;;4975211;28;20565;-84
2023/12/03 12:00:28;;;;;;;0.10;0.10;;;8.50;82.70;;;;;;4992368;28;20042;-82
2023/12/03 12:02:54;;;;;;;0.10;0.10;;;8.60;82.40;;;;;;4977412;28;20035;-82
2023/12/03 12:05:19;;;;;;;0.13;0.13;;;8.70;82.40;;;;;;4978215;28;20023;-80
2023/12/03 12:08:02;;;;;;;0.10;0.10;;;8.70;82.30;;;;;;4967316;28;20037;-88
2023/12/03 12:10:34;;;;;;;0.15;0.15;;;8.70;82.00;;;;;;4968220;28;20026;-84
2023/12/03 12:13:03;;;;;;;0.10;0.10;;;8.80;82.10;;;;;;4977153;28;20027;-82
2023/12/03 12:15:29;;;;;;;0.10;0.10;;;8.80;81.90;;;;;;4976833;28;20030;-85
2023/12/03 12:17:54;;;;;;;0.10;0.10;;;8.90;81.90;;;;;;4977031;28;20518;-84
2023/12/03 12:20:28;;;;;;;0.10;0.10;;;8.90;82.00;;;;;;4964171;28;20027;-83
2023/12/03 12:22:54;;;;;;;0.10;0.10;;;8.90;82.00;;;;;;4975464;28;20105;-82
2023/12/03 12:25:21;;;;;;;0.10;0.10;;;8.80;82.10;;;;;;4996499;28;20061;-86
2023/12/03 12:27:48;;;;;;;0.10;0.10;;;8.70;82.30;;;;;;4978455;28;20038;-82
2023/12/03 12:30:16;;;;;;;0.10;0.10;;;8.70;82.80;;;;;;4975524;28;20105;-79
2023/12/03 12:32:42;;;;;;;0.10;0.10;;;8.70;83.00;;;;;;4959710;28;20038;-79
2023/12/03 12:35:11;;;;;;;0.10;0.10;;;8.70;83.00;;;;;;4989794;28;20038;-80
2023/12/03 12:37:37;;;;;;;0.10;0.10;;;8.70;83.10;;;;;;4991685;28;20055;-80
2023/12/03 12:40:10;;;;;;;0.10;0.10;;;8.80;83.20;;;;;;4991392;28;20030;-78
2023/12/03 12:42:40;;;;;;;0.10;0.10;;;8.90;83.10;;;;;;4975338;28;20042;-80
2023/12/03 12:45:07;;;;;;;0.10;0.10;;;9.00;83.20;;;;;;4973907;28;20526;-84
2023/12/03 12:47:41;;;;;;;0.10;0.10;;;9.10;83.10;;;;;;4975905;28;20027;-79
2023/12/03 12:50:07;;;;;;;0.20;0.20;;;9.20;83.00;;;;;;4969138;28;20470;-78
2023/12/03 12:52:34;;;;;;;0.10;0.10;;;9.30;82.60;;;;;;4973578;28;20027;-82
2023/12/03 12:55:01;;;;;;;0.10;0.10;;;9.50;82.40;;;;;;4973816;28;20027;-84
2023/12/03 12:57:26;;;;;;;0.10;0.10;;;9.50;82.10;;;;;;4970026;28;20042;-84
2023/12/03 12:59:52;;;;;;;0.10;0.10;;;9.60;82.20;;;;;;4974420;28;20406;-81
2023/12/03 13:02:20;;;;;;;0.10;0.10;;;9.60;82.20;;;;;;4974526;28;20046;-79
2023/12/03 13:04:46;;;;;;;0.10;0.10;;;9.50;82.00;;;;;;4975301;28;20105;-78
2023/12/03 13:07:12;;;;;;;0.10;0.10;;;9.50;82.10;;;;;;4971629;28;20069;-78
2023/12/03 13:09:38;;;;;;;0.10;0.10;;;9.60;82.30;;;;;;4974358;28;20062;-78
2023/12/03 13:12:04;;;;;;;0.10;0.10;;;9.70;82.00;;;;;;5004048;28;20029;-79
2023/12/03 13:14:32;;;;;;;0.10;0.10;;;9.70;82.10;;;;;;4974315;28;20061;-79
2023/12/03 13:17:01;;;;;;;0.10;0.10;;;9.60;82.00;;;;;;4988572;28;20027;-78
2023/12/03 13:19:27;;;;;;;0.10;0.10;;;9.50;82.10;;;;;;5000925;28;20514;-78
2023/12/03 13:21:56;;;;;;;0.10;0.10;;;9.30;82.40;;;;;;4984038;28;20022;-77
2023/12/03 13:24:22;;;;;;;0.10;0.10;;;9.30;82.50;;;;;;4991437;28;20025;-79
2023/12/03 13:26:48;;;;;;;0.10;0.10;;;9.30;82.70;;;;;;4974632;28;20026;-78
2023/12/03 13:29:14;;;;;;;0.10;0.10;;;9.20;82.80;;;;;;4974152;28;20030;-81
2023/12/03 13:31:40;;;;;;;0.10;0.10;;;9.20;83.00;;;;;;4987761;28;20542;-77
2023/12/03 13:34:06;;;;;;;0.10;0.10;;;9.20;83.20;;;;;;4973342;28;20034;-83
2023/12/03 13:36:32;;;;;;;0.10;0.10;;;9.30;83.10;;;;;;4992124;28;20094;-80
2023/12/03 13:38:58;;;;;;;0.10;0.10;;;9.30;83.00;;;;;;4974386;28;20031;-83
2023/12/03 13:41:30;;;;;;;0.10;0.10;;;9.40;83.00;;;;;;4974169;28;20084;-79
2023/12/03 13:43:56;;;;;;;0.10;0.10;;;9.40;82.80;;;;;;4970326;28;20030;-78
2023/12/03 13:46:22;;;;;;;0.10;0.10;;;9.40;82.80;;;;;;4973656;28;20157;-79
2023/12/03 13:48:47;;;;;;;0.10;0.10;;;9.50;82.70;;;;;;4968794;28;20406;-80
2023/12/03 13:51:13;;;;;;;0.10;0.10;;;9.40;82.70;;;;;;4971321;28;20027;-87
2023/12/03 13:53:39;;;;;;;0.10;0.10;;;9.40;82.60;;;;;;4989466;28;20503;-79
2023/12/03 13:56:09;;;;;;;0.10;0.10;;;9.50;82.50;;;;;;4970761;28;20035;-79
2023/12/03 13:58:34;;;;;;;0.10;0.10;;;9.40;82.40;;;;;;4976970;28;20537;-78
2023/12/03 14:01:00;;;;;;;0.10;0.10;;;9.40;81.90;;;;;;4976755;28;20066;-79
2023/12/03 14:03:26;;;;;;;0.10;0.10;;;9.30;82.00;;;;;;4973684;28;20027;-77
2023/12/03 14:05:52;;;;;;;0.10;0.10;;;9.40;82.10;;;;;;4970561;28;20030;-78
2023/12/03 14:08:18;;;;;;;0.10;0.10;;;9.30;81.80;;;;;;4968376;28;20037;-77
2023/12/03 14:10:44;;;;;;;0.10;0.10;;;9.30;81.70;;;;;;4986431;28;20034;-78
2023/12/03 14:13:09;;;;;;;0.10;0.10;;;9.30;81.50;;;;;;4978142;28;20029;-78
2023/12/03 14:15:35;;;;;;;0.10;0.10;;;9.30;81.80;;;;;;4988622;28;20031;-79
2023/12/03 14:18:01;;;;;;;0.10;0.10;;;9.30;81.70;;;;;;4972700;28;20038;-82
2023/12/03 14:20:27;;;;;;;0.10;0.10;;;9.30;81.50;;;;;;4973820;28;20042;-79
2023/12/03 14:22:52;;;;;;;0.10;0.10;;;9.30;81.60;;;;;;4975647;28;20031;-79
2023/12/03 14:25:18;;;;;;;0.10;0.10;;;9.20;81.40;;;;;;4975569;28;20038;-81
2023/12/03 14:27:45;;;;;;;0.10;0.10;;;9.20;81.40;;;;;;4974289;28;20033;-78
2023/12/03 14:30:11;;;;;;;0.10;0.10;;;9.20;81.80;;;;;;4972250;28;20027;-80
2023/12/03 14:32:37;;;;;;;0.10;0.10;;;9.10;81.80;;;;;;4974417;28;20050;-80
2023/12/03 14:35:04;;;;;;;0.10;0.10;;;9.10;81.70;;;;;;4979975;28;20474;-78
2023/12/03 14:37:30;;;;;;;0.10;0.10;;;9.10;82.00;;;;;;4974588;28;20045;-79
2023/12/03 14:39:56;;;;;;;0.10;0.10;;;9.20;82.00;;;;;;4978780;28;20714;-81
2023/12/03 14:42:22;;;;;;;0.10;0.10;;;9.10;82.00;;;;;;4965577;28;20054;-81
2023/12/03 14:44:48;;;;;;;0.10;0.10;;;9.10;82.00;;;;;;4966868;28;20039;-82
2023/12/03 14:47:13;;;;;;;0.10;0.10;;;9.10;82.00;;;;;;4989288;28;20479;-82
2023/12/03 14:49:39;;;;;;;0.10;0.10;;;9.00;82.00;;;;;;4963417;28;20105;-79
2023/12/03 14:52:05;;;;;;;0.10;0.10;;;9.00;82.20;;;;;;4974831;28;20043;-78
2023/12/03 14:54:30;;;;;;;0.10;0.10;;;9.00;82.20;;;;;;4959230;28;20030;-79
2023/12/03 14:56:56;;;;;;;0.10;0.10;;;9.00;82.30;;;;;;4971290;28;20034;-79
2023/12/03 14:59:22;;;;;;;0.10;0.10;;;9.00;82.10;;;;;;4964477;28;20031;-79
2023/12/03 15:01:47;;;;;;;0.10;0.10;;;9.00;82.10;;;;;;4984212;28;20058;-79
2023/12/03 15:04:13;;;;;;;0.10;0.10;;;9.10;82.20;;;;;;5006286;28;20415;-79
2023/12/03 15:06:39;;;;;;;0.10;0.10;;;9.00;82.00;;;;;;4970900;28;20054;-78
2023/12/03 15:09:04;;;;;;;0.10;0.10;;;9.10;81.90;;;;;;4961724;28;20518;-78
2023/12/03 15:11:30;;;;;;;0.10;0.10;;;9.00;82.00;;;;;;4997487;28;20039;-79
2023/12/03 15:13:56;;;;;;;0.10;0.10;;;9.00;82.10;;;;;;4977515;28;20081;-81
2023/12/03 15:16:22;;;;;;;0.10;0.10;;;9.00;81.90;;;;;;4970484;28;20070;-79
2023/12/03 15:18:48;;;;;;;0.20;0.20;;;8.90;82.10;;;;;;4974501;28;20121;-80
2023/12/03 15:21:13;;;;;;;0.10;0.10;;;8.90;82.10;;;;;;4968030;28;20027;-79
2023/12/03 15:23:40;;;;;;;0.10;0.10;;;8.90;82.20;;;;;;4969579;28;20027;-79
2023/12/03 15:26:07;;;;;;;0.10;0.10;;;8.80;82.00;;;;;;4963182;28;20035;-77
2023/12/03 15:28:33;;;;;;;0.10;0.10;;;8.80;82.20;;;;;;4973622;28;20031;-79
2023/12/03 15:30:58;;;;;;;0.10;0.10;;;8.80;82.10;;;;;;4956981;28;20094;-78
2023/12/03 15:33:24;;;;;;;0.10;0.10;;;8.70;82.30;;;;;;4975602;28;20094;-78
2023/12/03 15:35:51;;;;;;;0.10;0.10;;;8.70;82.30;;;;;;4968424;28;20020;-78
2023/12/03 15:38:16;;;;;;;0.10;0.10;;;8.70;82.40;;;;;;4965517;28;20023;-78
2023/12/03 15:40:42;;;;;;;0.10;0.10;;;8.70;82.20;;;;;;4958349;28;20026;-79
2023/12/03 15:43:08;;;;;;;0.10;0.10;;;8.70;82.30;;;;;;4969211;28;20046;-79
2023/12/03 15:45:36;;;;;;;0.10;0.10;;;8.60;82.20;;;;;;4977058;28;20019;-81
2023/12/03 15:48:05;;;;;;;0.10;0.10;;;8.60;82.30;;;;;;4976150;28;20030;-80
2023/12/03 15:50:31;;;;;;;0.10;0.10;;;8.60;82.20;;;;;;4966441;28;20035;-78
2023/12/03 15:52:56;;;;;;;0.10;0.10;;;8.60;82.30;;;;;;4962444;28;20061;-79
2023/12/03 15:55:22;;;;;;;0.10;0.10;;;8.50;82.20;;;;;;4975775;28;20031;-84
2023/12/03 15:57:47;;;;;;;0.10;0.10;;;8.50;82.30;;;;;;4964924;28;20482;-78
2023/12/03 16:00:13;;;;;;;0.10;0.10;;;8.50;82.20;;;;;;4967430;28;20026;-80
2023/12/03 16:02:39;;;;;;;0.10;0.10;;;8.50;82.20;;;;;;4969574;28;20102;-81
2023/12/03 16:05:05;;;;;;;0.10;0.10;;;8.50;82.30;;;;;;4960417;28;20871;-85
2023/12/03 16:07:31;;;;;;;0.10;0.10;;;8.40;82.40;;;;;;4969956;28;20046;-79
2023/12/03 16:09:56;;;;;;;0.10;0.10;;;8.40;82.50;;;;;;4969437;28;20027;-79
2023/12/03 16:12:22;;;;;;;0.10;0.10;;;8.40;82.50;;;;;;4970541;28;20037;-79
2023/12/03 16:14:48;;;;;;;0.10;0.10;;;8.40;82.50;;;;;;4997993;28;20158;-78
2023/12/03 16:17:14;;;;;;;0.10;0.10;;;8.30;82.50;;;;;;4962491;28;20086;-78
2023/12/03 16:19:40;;;;;;;0.10;0.10;;;8.30;82.60;;;;;;4974314;28;20438;-83
2023/12/03 16:22:06;;;;;;;0.10;0.10;;;8.30;82.50;;;;;;4961068;28;20035;-83
2023/12/03 16:24:32;;;;;;;0.17;0.17;;;8.30;82.50;;;;;;4967531;28;20027;-83
2023/12/03 16:26:58;;;;;;;0.10;0.10;;;8.20;82.60;;;;;;4966606;28;20031;-82
2023/12/03 16:29:24;;;;;;;0.10;0.10;;;8.20;82.10;;;;;;4964226;28;20490;-81
2023/12/03 16:31:50;;;;;;;0.10;0.10;;;8.20;81.90;;;;;;4969093;28;20098;-82
2023/12/03 16:34:15;;;;;;;0.10;0.10;;;8.20;81.70;;;;;;4968292;28;20030;-82
2023/12/03 16:36:41;;;;;;;0.10;0.10;;;8.20;81.50;;;;;;4969154;28;20031;-79
2023/12/03 16:39:10;;;;;;;0.10;0.10;;;8.20;81.50;;;;;;4970545;28;20023;-78
2023/12/03 16:41:36;;;;;;;0.10;0.10;;;8.20;81.10;;;;;;4967183;28;20038;-80
2023/12/03 16:44:01;;;;;;;0.10;0.10;;;8.10;81.00;;;;;;4970169;28;20023;-80
2023/12/03 16:46:29;;;;;;;0.10;0.10;;;8.10;80.60;;;;;;4969238;28;20027;-81
2023/12/03 16:48:56;;;;;;;0.10;0.10;;;8.20;80.50;;;;;;4973263;28;20037;-80
2023/12/03 16:51:25;;;;;;;0.10;0.10;;;8.20;80.50;;;;;;4970227;28;20024;-81
2023/12/03 16:53:51;;;;;;;0.10;0.10;;;8.20;80.20;;;;;;4973922;28;20641;-80
2023/12/03 16:56:17;;;;;;;0.10;0.10;;;8.20;79.70;;;;;;4982596;28;20094;-80
2023/12/03 16:58:42;;;;;;;0.10;0.10;;;8.10;79.60;;;;;;4997715;28;20033;-80
2023/12/03 17:01:09;;;;;;;0.10;0.10;;;8.10;79.50;;;;;;4940617;28;20027;-80
2023/12/03 17:03:39;;;;;;;0.10;0.10;;;8.10;79.40;;;;;;4963534;28;20034;-80
2023/12/03 17:06:05;;;;;;;0.10;0.10;;;8.10;79.00;;;;;;4958328;28;20019;-85
2023/12/03 17:08:31;;;;;;;0.10;0.10;;;8.10;79.00;;;;;;4964461;28;20023;-82
2023/12/03 17:10:57;;;;;;;0.10;0.10;;;8.00;78.10;;;;;;4961811;28;20027;-80
2023/12/03 17:13:23;;;;;;;0.15;0.15;;;8.00;78.40;;;;;;4964899;28;20041;-83
2023/12/03 17:15:49;;;;;;;0.10;0.10;;;8.10;78.30;;;;;;4969320;28;20529;-81
2023/12/03 17:18:15;;;;;;;0.10;0.10;;;8.00;77.30;;;;;;4956425;28;20035;-80
2023/12/03 17:20:41;;;;;;;0.10;0.10;;;8.00;77.20;;;;;;4963705;28;20031;-81
2023/12/03 17:23:08;;;;;;;0.10;0.10;;;8.00;76.90;;;;;;4962027;28;20098;-79
2023/12/03 17:25:34;;;;;;;0.10;0.10;;;8.00;76.10;;;;;;4973267;28;20816;-81
2023/12/03 17:28:01;;;;;;;0.10;0.10;;;7.90;75.20;;;;;;4964400;28;20125;-83
2023/12/03 17:30:27;;;;;;;0.10;0.10;;;7.90;75.60;;;;;;4965211;28;20122;-78
2023/12/03 17:32:53;;;;;;;0.10;0.10;;;7.90;75.10;;;;;;4972409;28;20577;-79
2023/12/03 17:35:21;;;;;;;0.10;0.10;;;7.90;74.80;;;;;;4966377;28;20886;-82
2023/12/03 17:37:47;;;;;;;0.10;0.10;;;7.80;74.90;;;;;;4989119;28;20130;-80
2023/12/03 17:40:13;;;;;;;0.10;0.10;;;7.90;74.80;;;;;;4982306;28;20514;-79
2023/12/03 17:42:41;;;;;;;0.10;0.10;;;7.80;74.40;;;;;;4967935;28;20121;-78
2023/12/03 17:45:08;;;;;;;0.10;0.10;;;7.90;74.20;;;;;;4966813;28;20027;-76
2023/12/03 17:47:35;;;;;;;0.10;0.10;;;7.80;74.00;;;;;;4961732;28;20027;-79
2023/12/03 17:50:01;;;;;;;0.10;0.10;;;7.90;73.50;;;;;;4977617;28;20513;-79
2023/12/03 17:52:27;;;;;;;0.10;0.10;;;7.90;74.00;;;;;;4952078;28;20046;-77
2023/12/03 17:54:53;;;;;;;0.10;0.10;;;7.90;73.40;;;;;;4970847;28;20034;-82
2023/12/03 17:57:18;;;;;;;0.10;0.10;;;7.90;73.10;;;;;;4965037;28;20031;-80
2023/12/03 17:59:44;;;;;;;0.10;0.10;;;7.80;73.10;;;;;;4960467;28;20450;-80
2023/12/03 18:02:11;;;;;;;0.10;0.10;;;7.80;72.40;;;;;;4950364;28;20023;-84
2023/12/03 18:04:37;;;;;;;0.10;0.10;;;7.70;72.50;;;;;;4959095;28;20091;-82
2023/12/03 18:07:06;;;;;;;0.10;0.10;;;7.80;72.50;;;;;;4996553;28;20066;-80
2023/12/03 18:09:38;;;;;;;0.10;0.10;;;7.70;72.20;;;;;;4954039;28;20177;-84
2023/12/03 18:12:07;;;;;;;0.10;0.10;;;7.70;71.50;;;;;;4974752;28;20121;-87
2023/12/03 18:14:35;;;;;;;0.10;0.10;;;7.70;71.40;;;;;;4971157;28;20031;-87
2023/12/03 18:17:00;;;;;;;0.10;0.10;;;7.70;71.70;;;;;;4969671;28;20031;-87
2023/12/03 18:19:26;;;;;;;0.10;0.10;;;7.70;71.40;;;;;;4963178;28;20082;-88
2023/12/03 18:21:52;;;;;;;0.10;0.10;;;7.70;71.80;;;;;;4968342;28;20027;-88
2023/12/03 18:24:19;;;;;;;0.10;0.10;;;7.70;71.60;;;;;;4967859;28;20503;-89